This is the latest recevied weather packets stored in our database for station/object IU2PLZ-10. If no packets are shown the sender has not sent any weather packets the latest 10 day(s).
| Time | Temp. | Humidity | Pressure | Rain* | Wind** | Luminosity | Snow |
|---|---|---|---|---|---|---|---|
| 1777472167 | 26.11° C | 30% | 965 hPa | - | - | - | - |
| 1777471267 | 26.11° C | 30% | 965 hPa | - | - | - | - |
| 1777470366 | 26.11° C | 30% | 965.3 hPa | - | - | - | - |
| 1777469466 | 25.56° C | 30% | 965.6 hPa | - | - | - | - |
| 1777468566 | 26.11° C | 30% | 965.5 hPa | - | - | - | - |
| 1777467666 | 26.11° C | 30% | 965.4 hPa | - | - | - | - |
| 1777466766 | 26.11° C | 30% | 965.3 hPa | - | - | - | - |
| 1777465866 | 26.11° C | 29% | 964.5 hPa | - | - | - | - |
| 1777464965 | 25.56° C | 31% | 964.9 hPa | - | - | - | - |
| 1777464065 | 23.89° C | 31% | 963.6 hPa | - | - | - | - |
| 1777463165 | 24.44° C | 31% | 965.4 hPa | - | - | - | - |
| 1777462265 | 24.44° C | 30% | 965.5 hPa | - | - | - | - |
| 1777461365 | 25° C | 29% | 965.7 hPa | - | - | - | - |
| 1777460464 | 25.56° C | 27% | 965.7 hPa | - | - | - | - |
| 1777459564 | 27.22° C | 27% | 966.4 hPa | - | - | - | - |
| 1777458664 | 27.22° C | 27% | 966.1 hPa | - | - | - | - |
| 1777457764 | 27.78° C | 27% | 966.4 hPa | - | - | - | - |
| 1777456864 | 27.22° C | 28% | 966 hPa | - | - | - | - |
| 1777455964 | 26.67° C | 29% | 966.6 hPa | - | - | - | - |
| 1777455064 | 26.11° C | 28% | 966.6 hPa | - | - | - | - |
| 1777454163 | 26.67° C | 29% | 966.5 hPa | - | - | - | - |
| 1777453263 | 26.11° C | 29% | 965.8 hPa | - | - | - | - |
| 1777452364 | 25° C | 30% | 966.4 hPa | - | - | - | - |
| 1777451463 | 22.78° C | 30% | 963.9 hPa | - | - | - | - |
| 1777450563 | 23.89° C | 30% | 966.3 hPa | - | - | - | - |
* Rain since midnight (hover to see other rain measurements)
** Current wind speed in m/s (hover to see current wind gust speed)